Time;durP1;ratioP1;P1;durP2;ratioP2;P2;SDS_P1;SDS_P2;PMS_P1;PMS_P2;Temp;Humidity;BMP_temperature;BMP_pressure;BME280_temperature;BME280_humidity;BME280_pressure;Samples;Min_cycle;Max_cycle;Signal;HPM_P1;HPM_P2
2023/02/14 00:00:00;;;;;;;2.2;2.2;;;;;;;4.7;100.0;103230;;;;
2023/02/14 00:01:08;;;;;;;2.2;2.2;;;;;;;4.7;100.0;103230;;;;
2023/02/14 00:02:00;;;;;;;2.2;2.2;;;;;;;4.7;100.0;103230;;;;
2023/02/14 00:03:00;;;;;;;2.2;2.2;;;;;;;4.7;100.0;103230;;;;
2023/02/14 00:04:00;;;;;;;2.2;2.2;;;;;;;4.7;100.0;103230;;;;
2023/02/14 00:05:00;;;;;;;2.2;2.2;;;;;;;4.7;100.0;103230;;;;
2023/02/14 00:06:04;;;;;;;2.2;2.2;;;;;;;4.7;100.0;103230;;;;
2023/02/14 00:07:00;;;;;;;2.2;2.2;;;;;;;4.6;100.0;103230;;;;
2023/02/14 00:08:00;;;;;;;2.2;2.2;;;;;;;4.6;100.0;103230;;;;
2023/02/14 00:09:01;;;;;;;2.2;2.2;;;;;;;4.6;100.0;103230;;;;
2023/02/14 00:10:00;;;;;;;2.2;2.2;;;;;;;4.6;100.0;103230;;;;
2023/02/14 00:11:01;;;;;;;2.2;2.2;;;;;;;4.6;100.0;103240;;;;
2023/02/14 00:12:00;;;;;;;2.2;2.2;;;;;;;4.6;100.0;103240;;;;
2023/02/14 00:13:00;;;;;;;2.2;2.2;;;;;;;4.6;100.0;103230;;;;
2023/02/14 00:16:00;;;;;;;2.2;2.2;;;;;;;4.6;100.0;103230;;;;
2023/02/14 00:17:00;;;;;;;2.3;2.3;;;;;;;4.5;100.0;103230;;;;
2023/02/14 00:18:01;;;;;;;2.3;2.3;;;;;;;4.5;100.0;103230;;;;
2023/02/14 00:19:03;;;;;;;2.3;2.3;;;;;;;4.5;100.0;103230;;;;
2023/02/14 00:20:00;;;;;;;2.3;2.3;;;;;;;4.5;100.0;103230;;;;
2023/02/14 00:21:01;;;;;;;2.3;2.3;;;;;;;4.5;100.0;103230;;;;
2023/02/14 00:22:00;;;;;;;2.3;2.3;;;;;;;4.5;100.0;103230;;;;
2023/02/14 00:23:00;;;;;;;2.3;2.3;;;;;;;4.5;100.0;103220;;;;
2023/02/14 00:24:00;;;;;;;2.3;2.3;;;;;;;4.5;100.0;103220;;;;
2023/02/14 00:25:00;;;;;;;2.3;2.3;;;;;;;4.4;100.0;103220;;;;
2023/02/14 00:26:00;;;;;;;2.3;2.3;;;;;;;4.4;100.0;103220;;;;
2023/02/14 00:27:00;;;;;;;2.3;2.3;;;;;;;4.4;100.0;103220;;;;
2023/02/14 00:28:00;;;;;;;2.3;2.3;;;;;;;4.4;100.0;103220;;;;
2023/02/14 00:29:00;;;;;;;2.3;2.3;;;;;;;4.4;100.0;103220;;;;
2023/02/14 00:30:02;;;;;;;2.3;2.3;;;;;;;4.4;100.0;103220;;;;
2023/02/14 00:31:01;;;;;;;2.3;2.3;;;;;;;4.3;100.0;103220;;;;
2023/02/14 00:32:00;;;;;;;2.3;2.3;;;;;;;4.3;100.0;103220;;;;
2023/02/14 00:33:00;;;;;;;2.3;2.3;;;;;;;4.4;100.0;103220;;;;
2023/02/14 00:34:00;;;;;;;2.3;2.3;;;;;;;4.4;100.0;103220;;;;
2023/02/14 00:35:00;;;;;;;2.3;2.3;;;;;;;4.3;100.0;103220;;;;
2023/02/14 00:36:02;;;;;;;2.3;2.3;;;;;;;4.3;100.0;103220;;;;
2023/02/14 00:37:00;;;;;;;2.8;2.7;;;;;;;4.4;100.0;103220;;;;
2023/02/14 00:38:00;;;;;;;2.8;2.7;;;;;;;4.4;100.0;103220;;;;
2023/02/14 00:39:04;;;;;;;2.8;2.7;;;;;;;4.2;100.0;103220;;;;
2023/02/14 00:40:00;;;;;;;2.8;2.7;;;;;;;4.2;100.0;103220;;;;
2023/02/14 00:41:01;;;;;;;2.8;2.7;;;;;;;4.3;100.0;103220;;;;
2023/02/14 00:42:00;;;;;;;2.8;2.7;;;;;;;4.3;100.0;103220;;;;
2023/02/14 00:43:00;;;;;;;2.8;2.7;;;;;;;4.3;100.0;103220;;;;
2023/02/14 00:44:00;;;;;;;2.8;2.7;;;;;;;4.3;100.0;103220;;;;
2023/02/14 00:45:00;;;;;;;2.8;2.7;;;;;;;4.2;100.0;103220;;;;
2023/02/14 00:46:00;;;;;;;2.8;2.7;;;;;;;4.2;100.0;103220;;;;
2023/02/14 00:47:00;;;;;;;2.8;2.7;;;;;;;4.2;100.0;103210;;;;
2023/02/14 00:48:00;;;;;;;2.8;2.7;;;;;;;4.2;100.0;103210;;;;
2023/02/14 00:49:00;;;;;;;2.8;2.7;;;;;;;4.2;100.0;103210;;;;
2023/02/14 00:50:01;;;;;;;2.8;2.7;;;;;;;4.2;100.0;103210;;;;
2023/02/14 00:51:00;;;;;;;2.8;2.7;;;;;;;4.2;100.0;103210;;;;
2023/02/14 00:52:00;;;;;;;2.8;2.7;;;;;;;4.2;100.0;103210;;;;
2023/02/14 00:53:00;;;;;;;2.8;2.7;;;;;;;4.2;100.0;103210;;;;
2023/02/14 00:54:00;;;;;;;2.8;2.7;;;;;;;4.2;100.0;103210;;;;
2023/02/14 00:55:00;;;;;;;2.8;2.7;;;;;;;4.2;100.0;103210;;;;
2023/02/14 00:56:00;;;;;;;2.8;2.7;;;;;;;4.2;100.0;103210;;;;
2023/02/14 00:57:00;;;;;;;2.5;2.4;;;;;;;4.2;100.0;103210;;;;
2023/02/14 00:58:00;;;;;;;2.5;2.4;;;;;;;4.2;100.0;103210;;;;
2023/02/14 00:59:00;;;;;;;2.5;2.4;;;;;;;4.2;100.0;103210;;;;
2023/02/14 01:00:00;;;;;;;2.5;2.4;;;;;;;4.2;100.0;103210;;;;
2023/02/14 01:01:01;;;;;;;2.5;2.4;;;;;;;4.2;100.0;103210;;;;
2023/02/14 01:02:00;;;;;;;2.5;2.4;;;;;;;4.2;100.0;103210;;;;
2023/02/14 01:03:00;;;;;;;2.5;2.4;;;;;;;4.1;100.0;103220;;;;
2023/02/14 01:04:00;;;;;;;2.5;2.4;;;;;;;4.1;100.0;103220;;;;
2023/02/14 01:05:00;;;;;;;2.5;2.4;;;;;;;4.1;100.0;103220;;;;
2023/02/14 01:06:00;;;;;;;2.5;2.4;;;;;;;4.1;100.0;103220;;;;
2023/02/14 01:07:00;;;;;;;2.5;2.4;;;;;;;4.0;100.0;103220;;;;
2023/02/14 01:08:00;;;;;;;2.5;2.4;;;;;;;4.0;100.0;103220;;;;
2023/02/14 01:09:00;;;;;;;2.5;2.4;;;;;;;4.1;100.0;103220;;;;
2023/02/14 01:10:00;;;;;;;2.5;2.4;;;;;;;4.1;100.0;103220;;;;
2023/02/14 01:11:09;;;;;;;2.5;2.4;;;;;;;4.0;100.0;103210;;;;
2023/02/14 01:12:00;;;;;;;2.5;2.4;;;;;;;4.0;100.0;103210;;;;
2023/02/14 01:13:00;;;;;;;2.5;2.4;;;;;;;3.9;100.0;103220;;;;
2023/02/14 01:14:00;;;;;;;2.5;2.4;;;;;;;3.9;100.0;103220;;;;
2023/02/14 01:15:00;;;;;;;2.5;2.4;;;;;;;3.9;100.0;103210;;;;
2023/02/14 01:16:03;;;;;;;2.5;2.4;;;;;;;3.9;100.0;103210;;;;
2023/02/14 01:17:00;;;;;;;2.2;2.2;;;;;;;4.0;100.0;103210;;;;
2023/02/14 01:18:00;;;;;;;2.2;2.2;;;;;;;4.0;100.0;103210;;;;
2023/02/14 01:19:00;;;;;;;2.2;2.2;;;;;;;4.0;100.0;103210;;;;
2023/02/14 01:20:00;;;;;;;2.2;2.2;;;;;;;4.0;100.0;103210;;;;
2023/02/14 01:21:10;;;;;;;2.2;2.2;;;;;;;3.9;100.0;103210;;;;
2023/02/14 01:22:00;;;;;;;2.2;2.2;;;;;;;3.9;100.0;103210;;;;
2023/02/14 01:23:00;;;;;;;2.2;2.2;;;;;;;3.9;100.0;103210;;;;
2023/02/14 01:24:01;;;;;;;2.2;2.2;;;;;;;3.9;100.0;103210;;;;
2023/02/14 01:25:00;;;;;;;2.2;2.2;;;;;;;3.8;100.0;103210;;;;
2023/02/14 01:26:03;;;;;;;2.2;2.2;;;;;;;3.8;100.0;103210;;;;
2023/02/14 01:27:00;;;;;;;2.2;2.2;;;;;;;3.9;100.0;103210;;;;
2023/02/14 01:28:00;;;;;;;2.2;2.2;;;;;;;3.9;100.0;103210;;;;
2023/02/14 01:29:00;;;;;;;2.2;2.2;;;;;;;3.8;100.0;103220;;;;
2023/02/14 01:30:00;;;;;;;2.2;2.2;;;;;;;3.8;100.0;103220;;;;
2023/02/14 01:31:09;;;;;;;2.2;2.2;;;;;;;3.8;100.0;103220;;;;
2023/02/14 01:32:00;;;;;;;2.2;2.2;;;;;;;3.8;100.0;103220;;;;
2023/02/14 01:33:00;;;;;;;2.2;2.2;;;;;;;3.8;100.0;103220;;;;
2023/02/14 01:34:00;;;;;;;2.2;2.2;;;;;;;3.8;100.0;103220;;;;
2023/02/14 01:35:00;;;;;;;2.2;2.2;;;;;;;3.8;100.0;103220;;;;
2023/02/14 01:36:00;;;;;;;2.2;2.2;;;;;;;3.8;100.0;103220;;;;
2023/02/14 01:37:00;;;;;;;2.1;2.1;;;;;;;3.8;100.0;103220;;;;
2023/02/14 01:38:00;;;;;;;2.1;2.1;;;;;;;3.8;100.0;103220;;;;
2023/02/14 01:39:02;;;;;;;2.1;2.1;;;;;;;3.7;100.0;103220;;;;
2023/02/14 01:40:01;;;;;;;2.1;2.1;;;;;;;3.7;100.0;103220;;;;
2023/02/14 01:41:01;;;;;;;2.1;2.1;;;;;;;3.7;100.0;103220;;;;
2023/02/14 01:42:00;;;;;;;2.1;2.1;;;;;;;3.7;100.0;103220;;;;
2023/02/14 01:43:00;;;;;;;2.1;2.1;;;;;;;3.7;100.0;103220;;;;
2023/02/14 01:44:10;;;;;;;2.1;2.1;;;;;;;3.7;100.0;103220;;;;
2023/02/14 01:45:03;;;;;;;2.1;2.1;;;;;;;3.7;100.0;103220;;;;
2023/02/14 01:46:00;;;;;;;2.1;2.1;;;;;;;3.7;100.0;103220;;;;
2023/02/14 01:47:01;;;;;;;2.1;2.1;;;;;;;3.7;100.0;103220;;;;
2023/02/14 01:48:00;;;;;;;2.1;2.1;;;;;;;3.7;100.0;103220;;;;
2023/02/14 01:49:02;;;;;;;2.1;2.1;;;;;;;3.6;100.0;103220;;;;
2023/02/14 01:50:03;;;;;;;2.1;2.1;;;;;;;3.6;100.0;103220;;;;
2023/02/14 01:51:01;;;;;;;2.1;2.1;;;;;;;3.6;100.0;103220;;;;
2023/02/14 01:52:04;;;;;;;2.1;2.1;;;;;;;3.6;100.0;103220;;;;
2023/02/14 01:53:03;;;;;;;2.1;2.1;;;;;;;3.5;100.0;103220;;;;
2023/02/14 01:54:01;;;;;;;2.1;2.1;;;;;;;3.5;100.0;103220;;;;
2023/02/14 01:55:02;;;;;;;2.1;2.1;;;;;;;3.5;100.0;103220;;;;
2023/02/14 01:56:05;;;;;;;2.1;2.1;;;;;;;3.5;100.0;103220;;;;
2023/02/14 01:57:03;;;;;;;2.2;2.2;;;;;;;3.6;100.0;103220;;;;
2023/02/14 01:58:03;;;;;;;2.2;2.2;;;;;;;3.6;100.0;103220;;;;
2023/02/14 01:59:01;;;;;;;2.2;2.2;;;;;;;3.4;100.0;103220;;;;
2023/02/14 02:00:55;;;;;;;2.2;2.2;;;;;;;3.4;100.0;103220;;;;
2023/02/14 02:01:01;;;;;;;2.2;2.2;;;;;;;3.5;100.0;103220;;;;
2023/02/14 02:02:00;;;;;;;2.2;2.2;;;;;;;3.5;100.0;103220;;;;
2023/02/14 02:03:00;;;;;;;2.2;2.2;;;;;;;3.5;100.0;103220;;;;
2023/02/14 02:04:06;;;;;;;2.2;2.2;;;;;;;3.5;100.0;103220;;;;
2023/02/14 02:05:00;;;;;;;2.2;2.2;;;;;;;3.5;100.0;103210;;;;
2023/02/14 02:06:10;;;;;;;2.2;2.2;;;;;;;3.5;100.0;103210;;;;
2023/02/14 02:07:02;;;;;;;2.2;2.2;;;;;;;3.5;100.0;103210;;;;
2023/02/14 02:08:00;;;;;;;2.2;2.2;;;;;;;3.5;100.0;103210;;;;
2023/02/14 02:09:07;;;;;;;2.2;2.2;;;;;;;3.5;100.0;103210;;;;
2023/02/14 02:10:02;;;;;;;2.2;2.2;;;;;;;3.5;100.0;103210;;;;
2023/02/14 02:11:01;;;;;;;2.2;2.2;;;;;;;3.4;100.0;103210;;;;
2023/02/14 02:12:00;;;;;;;2.2;2.2;;;;;;;3.4;100.0;103210;;;;
2023/02/14 02:13:04;;;;;;;2.2;2.2;;;;;;;3.4;100.0;103200;;;;
2023/02/14 02:14:00;;;;;;;2.2;2.2;;;;;;;3.4;100.0;103200;;;;
2023/02/14 02:15:01;;;;;;;2.2;2.2;;;;;;;3.4;100.0;103200;;;;
2023/02/14 02:16:10;;;;;;;2.2;2.2;;;;;;;3.4;100.0;103200;;;;
2023/02/14 02:17:03;;;;;;;2.4;2.4;;;;;;;3.5;100.0;103190;;;;
2023/02/14 02:18:10;;;;;;;2.4;2.4;;;;;;;3.5;100.0;103190;;;;
2023/02/14 02:19:10;;;;;;;2.4;2.4;;;;;;;3.5;100.0;103190;;;;
2023/02/14 02:20:10;;;;;;;2.4;2.4;;;;;;;3.5;100.0;103190;;;;
2023/02/14 02:21:10;;;;;;;2.4;2.4;;;;;;;3.4;100.0;103190;;;;
2023/02/14 02:22:10;;;;;;;2.4;2.4;;;;;;;3.4;100.0;103190;;;;
2023/02/14 02:23:10;;;;;;;2.4;2.4;;;;;;;3.3;100.0;103190;;;;
2023/02/14 02:24:10;;;;;;;2.4;2.4;;;;;;;3.3;100.0;103190;;;;
2023/02/14 02:25:10;;;;;;;2.4;2.4;;;;;;;3.3;100.0;103190;;;;
2023/02/14 02:26:01;;;;;;;2.4;2.4;;;;;;;3.3;100.0;103190;;;;
2023/02/14 02:27:10;;;;;;;2.4;2.4;;;;;;;3.3;100.0;103190;;;;
2023/02/14 02:28:10;;;;;;;2.4;2.4;;;;;;;3.3;100.0;103190;;;;
2023/02/14 02:29:10;;;;;;;2.4;2.4;;;;;;;3.3;100.0;103190;;;;
2023/02/14 02:30:10;;;;;;;2.4;2.4;;;;;;;3.3;100.0;103190;;;;
2023/02/14 02:31:10;;;;;;;2.4;2.4;;;;;;;3.3;100.0;103190;;;;
2023/02/14 02:32:01;;;;;;;2.4;2.4;;;;;;;3.3;100.0;103190;;;;
2023/02/14 02:33:02;;;;;;;2.4;2.4;;;;;;;3.3;100.0;103190;;;;
2023/02/14 02:34:10;;;;;;;2.4;2.4;;;;;;;3.3;100.0;103190;;;;
2023/02/14 02:35:04;;;;;;;2.4;2.4;;;;;;;3.2;100.0;103190;;;;
2023/02/14 02:36:07;;;;;;;2.4;2.4;;;;;;;3.2;100.0;103190;;;;
2023/02/14 02:37:09;;;;;;;2.5;2.5;;;;;;;3.3;100.0;103190;;;;
2023/02/14 02:38:10;;;;;;;2.5;2.5;;;;;;;3.3;100.0;103190;;;;
2023/02/14 02:39:10;;;;;;;2.5;2.5;;;;;;;3.3;100.0;103190;;;;
2023/02/14 02:40:10;;;;;;;2.5;2.5;;;;;;;3.3;100.0;103190;;;;
2023/02/14 02:41:01;;;;;;;2.5;2.5;;;;;;;3.2;100.0;103180;;;;
2023/02/14 02:42:10;;;;;;;2.5;2.5;;;;;;;3.2;100.0;103180;;;;
2023/02/14 02:43:01;;;;;;;2.5;2.5;;;;;;;3.2;100.0;103180;;;;
2023/02/14 02:44:10;;;;;;;2.5;2.5;;;;;;;3.2;100.0;103180;;;;
2023/02/14 02:45:01;;;;;;;2.5;2.5;;;;;;;3.2;100.0;103180;;;;
2023/02/14 02:47:04;;;;;;;2.5;2.5;;;;;;;3.3;100.0;103180;;;;
2023/02/14 02:48:05;;;;;;;2.5;2.5;;;;;;;3.3;100.0;103180;;;;
2023/02/14 02:49:10;;;;;;;2.5;2.5;;;;;;;3.2;100.0;103180;;;;
2023/02/14 02:53:02;;;;;;;2.5;2.5;;;;;;;3.2;100.0;103190;;;;
2023/02/14 02:54:05;;;;;;;2.5;2.5;;;;;;;3.2;100.0;103190;;;;
2023/02/14 02:55:05;;;;;;;2.5;2.5;;;;;;;3.1;100.0;103190;;;;
2023/02/14 02:57:04;;;;;;;2.5;2.5;;;;;;;3.2;100.0;103190;;;;
2023/02/14 02:58:01;;;;;;;2.5;2.5;;;;;;;3.2;100.0;103190;;;;
2023/02/14 02:59:05;;;;;;;2.5;2.5;;;;;;;3.1;100.0;103190;;;;
2023/02/14 03:00:01;;;;;;;2.5;2.5;;;;;;;3.1;100.0;103190;;;;
2023/02/14 03:01:02;;;;;;;2.5;2.5;;;;;;;3.1;100.0;103190;;;;
2023/02/14 03:02:10;;;;;;;2.5;2.5;;;;;;;3.1;100.0;103190;;;;
2023/02/14 03:05:03;;;;;;;2.5;2.5;;;;;;;3.1;100.0;103190;;;;
2023/02/14 03:06:01;;;;;;;2.5;2.5;;;;;;;3.1;100.0;103190;;;;
2023/02/14 03:07:33;;;;;;;2.5;2.5;;;;;;;3.1;100.0;103190;;;;
2023/02/14 03:08:00;;;;;;;2.5;2.5;;;;;;;3.1;100.0;103190;;;;
2023/02/14 03:09:10;;;;;;;2.5;2.5;;;;;;;3.0;100.0;103200;;;;
2023/02/14 03:10:05;;;;;;;2.5;2.5;;;;;;;3.0;100.0;103200;;;;
2023/02/14 03:11:02;;;;;;;2.5;2.5;;;;;;;3.0;100.0;103200;;;;
2023/02/14 03:12:01;;;;;;;2.5;2.5;;;;;;;3.0;100.0;103200;;;;
2023/02/14 03:13:03;;;;;;;2.5;2.5;;;;;;;3.0;100.0;103200;;;;
2023/02/14 03:14:07;;;;;;;2.5;2.5;;;;;;;3.0;100.0;103200;;;;
2023/02/14 03:15:10;;;;;;;2.5;2.5;;;;;;;3.0;100.0;103200;;;;
2023/02/14 03:16:10;;;;;;;2.5;2.5;;;;;;;3.0;100.0;103200;;;;
2023/02/14 03:17:06;;;;;;;2.5;2.5;;;;;;;3.0;100.0;103190;;;;
2023/02/14 03:18:12;;;;;;;2.5;2.5;;;;;;;3.0;100.0;103190;;;;
2023/02/14 03:19:09;;;;;;;2.5;2.5;;;;;;;3.0;100.0;103190;;;;
2023/02/14 03:21:01;;;;;;;2.5;2.5;;;;;;;3.0;100.0;103190;;;;
2023/02/14 03:22:03;;;;;;;2.5;2.5;;;;;;;3.0;100.0;103190;;;;
2023/02/14 03:23:10;;;;;;;2.5;2.5;;;;;;;3.0;100.0;103190;;;;
2023/02/14 03:24:10;;;;;;;2.5;2.5;;;;;;;3.0;100.0;103190;;;;
2023/02/14 03:25:10;;;;;;;2.5;2.5;;;;;;;3.0;100.0;103190;;;;
2023/02/14 03:26:00;;;;;;;2.5;2.5;;;;;;;3.0;100.0;103190;;;;
2023/02/14 03:27:00;;;;;;;2.5;2.5;;;;;;;3.0;100.0;103190;;;;
2023/02/14 03:28:07;;;;;;;2.5;2.5;;;;;;;3.0;100.0;103190;;;;
2023/02/14 03:29:09;;;;;;;2.5;2.5;;;;;;;2.9;100.0;103190;;;;
2023/02/14 03:30:10;;;;;;;2.5;2.5;;;;;;;2.9;100.0;103190;;;;
2023/02/14 03:31:00;;;;;;;2.5;2.5;;;;;;;2.9;100.0;103200;;;;
2023/02/14 03:32:10;;;;;;;2.5;2.5;;;;;;;2.9;100.0;103200;;;;
2023/02/14 03:33:02;;;;;;;2.5;2.5;;;;;;;2.9;100.0;103200;;;;
2023/02/14 03:34:10;;;;;;;2.5;2.5;;;;;;;2.9;100.0;103200;;;;
2023/02/14 03:35:01;;;;;;;2.5;2.5;;;;;;;2.9;100.0;103200;;;;
2023/02/14 03:36:07;;;;;;;2.4;2.4;;;;;;;2.9;100.0;103200;;;;
2023/02/14 03:37:04;;;;;;;2.4;2.4;;;;;;;2.9;100.0;103200;;;;
2023/02/14 03:38:07;;;;;;;2.4;2.4;;;;;;;2.9;100.0;103200;;;;
2023/02/14 03:39:04;;;;;;;2.4;2.4;;;;;;;2.9;100.0;103200;;;;
2023/02/14 03:40:10;;;;;;;2.4;2.4;;;;;;;2.9;100.0;103200;;;;
2023/02/14 03:41:02;;;;;;;2.4;2.4;;;;;;;2.8;100.0;103200;;;;
2023/02/14 03:42:05;;;;;;;2.4;2.4;;;;;;;2.8;100.0;103200;;;;
2023/02/14 03:43:05;;;;;;;2.4;2.4;;;;;;;2.8;100.0;103200;;;;
2023/02/14 03:44:02;;;;;;;2.4;2.4;;;;;;;2.8;100.0;103200;;;;
2023/02/14 03:45:02;;;;;;;2.4;2.4;;;;;;;2.8;100.0;103190;;;;
2023/02/14 03:46:08;;;;;;;2.4;2.4;;;;;;;2.8;100.0;103190;;;;
2023/02/14 03:47:03;;;;;;;2.4;2.4;;;;;;;2.8;100.0;103190;;;;
2023/02/14 03:48:03;;;;;;;2.4;2.4;;;;;;;2.8;100.0;103190;;;;
2023/02/14 03:49:02;;;;;;;2.4;2.4;;;;;;;2.8;100.0;103190;;;;
2023/02/14 03:50:05;;;;;;;2.4;2.4;;;;;;;2.8;100.0;103190;;;;
2023/02/14 03:51:02;;;;;;;2.4;2.4;;;;;;;2.8;100.0;103190;;;;
2023/02/14 03:52:02;;;;;;;2.4;2.4;;;;;;;2.8;100.0;103190;;;;
2023/02/14 03:53:00;;;;;;;2.4;2.4;;;;;;;2.7;100.0;103190;;;;
2023/02/14 03:54:02;;;;;;;2.4;2.4;;;;;;;2.7;100.0;103190;;;;
2023/02/14 03:55:02;;;;;;;2.4;2.4;;;;;;;2.7;100.0;103190;;;;
2023/02/14 03:56:05;;;;;;;2.7;2.6;;;;;;;2.7;100.0;103190;;;;
2023/02/14 03:57:07;;;;;;;2.7;2.6;;;;;;;2.8;100.0;103190;;;;
2023/02/14 03:58:07;;;;;;;2.7;2.6;;;;;;;2.8;100.0;103190;;;;
2023/02/14 03:59:05;;;;;;;2.7;2.6;;;;;;;2.7;100.0;103180;;;;
2023/02/14 04:00:00;;;;;;;2.7;2.6;;;;;;;2.7;100.0;103180;;;;
2023/02/14 04:01:05;;;;;;;2.7;2.6;;;;;;;2.7;100.0;103190;;;;
2023/02/14 04:02:04;;;;;;;2.7;2.6;;;;;;;2.7;100.0;103190;;;;
2023/02/14 04:03:03;;;;;;;2.7;2.6;;;;;;;2.8;100.0;103190;;;;
2023/02/14 04:04:03;;;;;;;2.7;2.6;;;;;;;2.8;100.0;103190;;;;
2023/02/14 04:05:02;;;;;;;2.7;2.6;;;;;;;2.7;100.0;103190;;;;
2023/02/14 04:06:00;;;;;;;2.7;2.6;;;;;;;2.7;100.0;103190;;;;
2023/02/14 04:07:10;;;;;;;2.7;2.6;;;;;;;2.7;100.0;103190;;;;
2023/02/14 04:08:00;;;;;;;2.7;2.6;;;;;;;2.7;100.0;103190;;;;
2023/02/14 04:09:00;;;;;;;2.7;2.6;;;;;;;2.7;100.0;103190;;;;
2023/02/14 04:10:00;;;;;;;2.7;2.6;;;;;;;2.7;100.0;103190;;;;
2023/02/14 04:11:02;;;;;;;2.7;2.6;;;;;;;2.7;100.0;103190;;;;
2023/02/14 04:12:00;;;;;;;2.7;2.6;;;;;;;2.7;100.0;103190;;;;
2023/02/14 04:13:00;;;;;;;2.7;2.6;;;;;;;2.7;100.0;103200;;;;
2023/02/14 04:14:01;;;;;;;2.7;2.6;;;;;;;2.7;100.0;103200;;;;
2023/02/14 04:15:00;;;;;;;2.7;2.6;;;;;;;2.8;100.0;103200;;;;
2023/02/14 04:16:00;;;;;;;3.0;2.9;;;;;;;2.8;100.0;103200;;;;
2023/02/14 04:20:00;;;;;;;3.0;2.9;;;;;;;2.7;100.0;103200;;;;
2023/02/14 04:21:01;;;;;;;3.0;2.9;;;;;;;2.7;100.0;103200;;;;
2023/02/14 04:22:00;;;;;;;3.0;2.9;;;;;;;2.7;100.0;103200;;;;
2023/02/14 04:23:03;;;;;;;3.0;2.9;;;;;;;2.7;100.0;103200;;;;
2023/02/14 04:24:00;;;;;;;3.0;2.9;;;;;;;2.7;100.0;103200;;;;
2023/02/14 04:25:00;;;;;;;3.0;2.9;;;;;;;2.7;100.0;103200;;;;
2023/02/14 04:26:02;;;;;;;3.0;2.9;;;;;;;2.7;100.0;103200;;;;
2023/02/14 04:28:00;;;;;;;3.0;2.9;;;;;;;2.7;100.0;103200;;;;
2023/02/14 04:29:00;;;;;;;3.0;2.9;;;;;;;2.7;100.0;103190;;;;
2023/02/14 04:30:00;;;;;;;3.0;2.9;;;;;;;2.7;100.0;103190;;;;
2023/02/14 04:31:02;;;;;;;3.0;2.9;;;;;;;2.8;100.0;103190;;;;
2023/02/14 04:32:00;;;;;;;3.0;2.9;;;;;;;2.8;100.0;103190;;;;
2023/02/14 04:33:00;;;;;;;3.0;2.9;;;;;;;2.7;100.0;103190;;;;
2023/02/14 04:34:00;;;;;;;3.0;2.9;;;;;;;2.7;100.0;103190;;;;
2023/02/14 04:35:00;;;;;;;3.0;2.9;;;;;;;2.7;100.0;103190;;;;
2023/02/14 04:36:00;;;;;;;2.8;2.7;;;;;;;2.7;100.0;103190;;;;
2023/02/14 04:37:00;;;;;;;2.8;2.7;;;;;;;2.7;100.0;103190;;;;
2023/02/14 04:38:01;;;;;;;2.8;2.7;;;;;;;2.7;100.0;103190;;;;
2023/02/14 04:39:00;;;;;;;2.8;2.7;;;;;;;2.7;100.0;103190;;;;
2023/02/14 04:40:00;;;;;;;2.8;2.7;;;;;;;2.7;100.0;103190;;;;
2023/02/14 04:41:01;;;;;;;2.8;2.7;;;;;;;2.7;100.0;103190;;;;
2023/02/14 04:42:00;;;;;;;2.8;2.7;;;;;;;2.7;100.0;103190;;;;
2023/02/14 04:43:00;;;;;;;2.8;2.7;;;;;;;2.7;100.0;103190;;;;
2023/02/14 04:44:00;;;;;;;2.8;2.7;;;;;;;2.7;100.0;103190;;;;
2023/02/14 04:45:03;;;;;;;2.8;2.7;;;;;;;2.7;100.0;103190;;;;
2023/02/14 04:46:00;;;;;;;2.8;2.7;;;;;;;2.7;100.0;103190;;;;
2023/02/14 04:47:00;;;;;;;2.8;2.7;;;;;;;2.7;100.0;103190;;;;
2023/02/14 04:48:00;;;;;;;2.8;2.7;;;;;;;2.7;100.0;103190;;;;
2023/02/14 04:49:00;;;;;;;2.8;2.7;;;;;;;2.7;100.0;103180;;;;
2023/02/14 04:50:00;;;;;;;2.8;2.7;;;;;;;2.7;100.0;103180;;;;
2023/02/14 04:51:01;;;;;;;2.8;2.7;;;;;;;2.8;100.0;103180;;;;
2023/02/14 04:52:00;;;;;;;2.8;2.7;;;;;;;2.8;100.0;103180;;;;
2023/02/14 04:53:00;;;;;;;2.8;2.7;;;;;;;2.8;100.0;103180;;;;
2023/02/14 04:54:00;;;;;;;2.8;2.7;;;;;;;2.8;100.0;103180;;;;
2023/02/14 04:55:00;;;;;;;2.8;2.7;;;;;;;2.7;100.0;103180;;;;
2023/02/14 04:56:00;;;;;;;2.4;2.4;;;;;;;2.7;100.0;103180;;;;
2023/02/14 04:57:00;;;;;;;2.4;2.4;;;;;;;2.8;100.0;103180;;;;
2023/02/14 04:58:00;;;;;;;2.4;2.4;;;;;;;2.8;100.0;103180;;;;
2023/02/14 04:59:00;;;;;;;2.4;2.4;;;;;;;2.8;100.0;103170;;;;
2023/02/14 05:00:00;;;;;;;2.4;2.4;;;;;;;2.8;100.0;103170;;;;
2023/02/14 05:01:01;;;;;;;2.4;2.4;;;;;;;2.8;100.0;103180;;;;
2023/02/14 05:02:00;;;;;;;2.4;2.4;;;;;;;2.8;100.0;103180;;;;
2023/02/14 05:03:00;;;;;;;2.4;2.4;;;;;;;2.7;100.0;103180;;;;
2023/02/14 05:04:00;;;;;;;2.4;2.4;;;;;;;2.7;100.0;103180;;;;
2023/02/14 05:05:00;;;;;;;2.4;2.4;;;;;;;2.8;100.0;103170;;;;
2023/02/14 05:06:00;;;;;;;2.4;2.4;;;;;;;2.8;100.0;103170;;;;
2023/02/14 05:07:00;;;;;;;2.4;2.4;;;;;;;2.8;100.0;103170;;;;
2023/02/14 05:08:00;;;;;;;2.4;2.4;;;;;;;2.8;100.0;103170;;;;
2023/02/14 05:09:00;;;;;;;2.4;2.4;;;;;;;2.7;100.0;103170;;;;
2023/02/14 05:10:00;;;;;;;2.4;2.4;;;;;;;2.7;100.0;103170;;;;
2023/02/14 05:11:00;;;;;;;2.4;2.4;;;;;;;2.7;100.0;103160;;;;
2023/02/14 05:12:00;;;;;;;2.4;2.4;;;;;;;2.7;100.0;103160;;;;
2023/02/14 05:13:00;;;;;;;2.4;2.4;;;;;;;2.8;100.0;103160;;;;
2023/02/14 05:14:00;;;;;;;2.4;2.4;;;;;;;2.8;100.0;103160;;;;
2023/02/14 05:15:00;;;;;;;2.4;2.4;;;;;;;2.7;100.0;103160;;;;
2023/02/14 05:16:00;;;;;;;2.9;2.8;;;;;;;2.7;100.0;103160;;;;
2023/02/14 05:17:00;;;;;;;2.9;2.8;;;;;;;2.7;100.0;103160;;;;
2023/02/14 05:18:01;;;;;;;2.9;2.8;;;;;;;2.7;100.0;103160;;;;
2023/02/14 05:19:00;;;;;;;2.9;2.8;;;;;;;2.8;100.0;103160;;;;
2023/02/14 05:20:00;;;;;;;2.9;2.8;;;;;;;2.8;100.0;103160;;;;
2023/02/14 05:21:01;;;;;;;2.9;2.8;;;;;;;2.8;100.0;103160;;;;
2023/02/14 05:22:00;;;;;;;2.9;2.8;;;;;;;2.8;100.0;103160;;;;
2023/02/14 05:23:02;;;;;;;2.9;2.8;;;;;;;2.8;100.0;103160;;;;
2023/02/14 05:24:00;;;;;;;2.9;2.8;;;;;;;2.8;100.0;103160;;;;
2023/02/14 05:25:00;;;;;;;2.9;2.8;;;;;;;2.8;100.0;103150;;;;
2023/02/14 05:26:00;;;;;;;2.9;2.8;;;;;;;2.8;100.0;103150;;;;
2023/02/14 05:27:00;;;;;;;2.9;2.8;;;;;;;2.7;100.0;103160;;;;
2023/02/14 05:28:00;;;;;;;2.9;2.8;;;;;;;2.7;100.0;103160;;;;
2023/02/14 05:29:00;;;;;;;2.9;2.8;;;;;;;2.7;100.0;103160;;;;
2023/02/14 05:30:00;;;;;;;2.9;2.8;;;;;;;2.7;100.0;103160;;;;
2023/02/14 05:31:01;;;;;;;2.9;2.8;;;;;;;2.7;100.0;103160;;;;
2023/02/14 05:32:00;;;;;;;2.9;2.8;;;;;;;2.7;100.0;103160;;;;
2023/02/14 05:33:00;;;;;;;2.9;2.8;;;;;;;2.7;100.0;103160;;;;
2023/02/14 05:34:00;;;;;;;2.9;2.8;;;;;;;2.7;100.0;103160;;;;
2023/02/14 05:35:01;;;;;;;2.9;2.8;;;;;;;2.7;100.0;103160;;;;
2023/02/14 05:36:01;;;;;;;2.7;2.6;;;;;;;2.7;100.0;103160;;;;
2023/02/14 05:37:01;;;;;;;2.7;2.6;;;;;;;2.7;100.0;103160;;;;
2023/02/14 05:38:00;;;;;;;2.7;2.6;;;;;;;2.7;100.0;103160;;;;
2023/02/14 05:39:00;;;;;;;2.7;2.6;;;;;;;2.7;100.0;103150;;;;
2023/02/14 05:40:00;;;;;;;2.7;2.6;;;;;;;2.7;100.0;103150;;;;
2023/02/14 05:41:01;;;;;;;2.7;2.6;;;;;;;2.7;100.0;103160;;;;
2023/02/14 05:42:00;;;;;;;2.7;2.6;;;;;;;2.7;100.0;103160;;;;
2023/02/14 05:43:00;;;;;;;2.7;2.6;;;;;;;2.6;100.0;103160;;;;
2023/02/14 05:44:00;;;;;;;2.7;2.6;;;;;;;2.6;100.0;103160;;;;
2023/02/14 05:45:00;;;;;;;2.7;2.6;;;;;;;2.6;100.0;103150;;;;
2023/02/14 05:46:00;;;;;;;2.7;2.6;;;;;;;2.6;100.0;103150;;;;
2023/02/14 05:47:00;;;;;;;2.7;2.6;;;;;;;2.6;100.0;103160;;;;
2023/02/14 05:48:00;;;;;;;2.7;2.6;;;;;;;2.6;100.0;103160;;;;
2023/02/14 05:49:00;;;;;;;2.7;2.6;;;;;;;2.6;100.0;103160;;;;
2023/02/14 05:50:00;;;;;;;2.7;2.6;;;;;;;2.6;100.0;103160;;;;
2023/02/14 05:51:04;;;;;;;2.7;2.6;;;;;;;2.5;100.0;103160;;;;
2023/02/14 05:52:00;;;;;;;2.7;2.6;;;;;;;2.5;100.0;103160;;;;
2023/02/14 05:53:00;;;;;;;2.7;2.6;;;;;;;2.6;100.0;103160;;;;
2023/02/14 05:54:00;;;;;;;2.7;2.6;;;;;;;2.6;100.0;103160;;;;
2023/02/14 05:55:00;;;;;;;2.7;2.6;;;;;;;2.5;100.0;103160;;;;
2023/02/14 05:56:00;;;;;;;3.2;3.1;;;;;;;2.5;100.0;103160;;;;
2023/02/14 05:57:00;;;;;;;3.2;3.1;;;;;;;2.5;100.0;103160;;;;
2023/02/14 05:58:00;;;;;;;3.2;3.1;;;;;;;2.5;100.0;103160;;;;
2023/02/14 05:59:00;;;;;;;3.2;3.1;;;;;;;2.5;100.0;103160;;;;
2023/02/14 06:00:00;;;;;;;3.2;3.1;;;;;;;2.5;100.0;103160;;;;
2023/02/14 06:01:01;;;;;;;3.2;3.1;;;;;;;2.5;100.0;103160;;;;
2023/02/14 06:02:00;;;;;;;3.2;3.1;;;;;;;2.5;100.0;103160;;;;
2023/02/14 06:03:00;;;;;;;3.2;3.1;;;;;;;2.4;100.0;103160;;;;
2023/02/14 06:04:00;;;;;;;3.2;3.1;;;;;;;2.4;100.0;103160;;;;
2023/02/14 06:05:00;;;;;;;3.2;3.1;;;;;;;2.4;100.0;103160;;;;
2023/02/14 06:06:00;;;;;;;3.2;3.1;;;;;;;2.4;100.0;103160;;;;
2023/02/14 06:07:00;;;;;;;3.2;3.1;;;;;;;2.4;100.0;103160;;;;
2023/02/14 06:08:00;;;;;;;3.2;3.1;;;;;;;2.4;100.0;103160;;;;
2023/02/14 06:09:00;;;;;;;3.2;3.1;;;;;;;2.3;100.0;103160;;;;
2023/02/14 06:10:00;;;;;;;3.2;3.1;;;;;;;2.3;100.0;103160;;;;
2023/02/14 06:11:00;;;;;;;3.2;3.1;;;;;;;2.4;100.0;103160;;;;
2023/02/14 06:12:00;;;;;;;3.2;3.1;;;;;;;2.4;100.0;103160;;;;
2023/02/14 06:13:00;;;;;;;3.2;3.1;;;;;;;2.4;100.0;103170;;;;
2023/02/14 06:14:00;;;;;;;3.2;3.1;;;;;;;2.4;100.0;103170;;;;
2023/02/14 06:15:00;;;;;;;3.2;3.1;;;;;;;2.3;100.0;103170;;;;
2023/02/14 06:16:02;;;;;;;3.4;3.3;;;;;;;2.3;100.0;103170;;;;
2023/02/14 06:17:00;;;;;;;3.4;3.3;;;;;;;2.3;100.0;103160;;;;
2023/02/14 06:18:00;;;;;;;3.4;3.3;;;;;;;2.3;100.0;103160;;;;
2023/02/14 06:19:00;;;;;;;3.4;3.3;;;;;;;2.3;100.0;103160;;;;
2023/02/14 06:20:00;;;;;;;3.4;3.3;;;;;;;2.3;100.0;103160;;;;
2023/02/14 06:21:00;;;;;;;3.4;3.3;;;;;;;2.3;100.0;103170;;;;
2023/02/14 06:22:00;;;;;;;3.4;3.3;;;;;;;2.3;100.0;103170;;;;
2023/02/14 06:23:00;;;;;;;3.4;3.3;;;;;;;2.2;100.0;103170;;;;
2023/02/14 06:24:00;;;;;;;3.4;3.3;;;;;;;2.2;100.0;103170;;;;
2023/02/14 06:25:00;;;;;;;3.4;3.3;;;;;;;2.2;100.0;103170;;;;
2023/02/14 06:26:00;;;;;;;3.4;3.3;;;;;;;2.2;100.0;103170;;;;
2023/02/14 06:27:00;;;;;;;3.4;3.3;;;;;;;2.2;100.0;103170;;;;
2023/02/14 06:28:00;;;;;;;3.4;3.3;;;;;;;2.2;100.0;103170;;;;
2023/02/14 06:29:00;;;;;;;3.4;3.3;;;;;;;2.2;100.0;103170;;;;
2023/02/14 06:30:00;;;;;;;3.4;3.3;;;;;;;2.2;100.0;103170;;;;
2023/02/14 06:31:01;;;;;;;3.4;3.3;;;;;;;2.2;100.0;103180;;;;
2023/02/14 06:32:04;;;;;;;3.4;3.3;;;;;;;2.2;100.0;103180;;;;
2023/02/14 06:33:00;;;;;;;3.4;3.3;;;;;;;2.1;100.0;103180;;;;
2023/02/14 06:34:00;;;;;;;3.4;3.3;;;;;;;2.1;100.0;103180;;;;
2023/02/14 06:35:00;;;;;;;3.4;3.3;;;;;;;2.1;100.0;103180;;;;
2023/02/14 06:36:00;;;;;;;3.0;2.9;;;;;;;2.1;100.0;103180;;;;
2023/02/14 06:37:00;;;;;;;3.0;2.9;;;;;;;2.1;100.0;103180;;;;
2023/02/14 06:38:00;;;;;;;3.0;2.9;;;;;;;2.1;100.0;103180;;;;
2023/02/14 06:39:00;;;;;;;3.0;2.9;;;;;;;2.0;100.0;103170;;;;
2023/02/14 06:40:01;;;;;;;3.0;2.9;;;;;;;2.0;100.0;103170;;;;
2023/02/14 06:41:03;;;;;;;3.0;2.9;;;;;;;2.1;100.0;103180;;;;
2023/02/14 06:42:00;;;;;;;3.0;2.9;;;;;;;2.1;100.0;103180;;;;
2023/02/14 06:43:00;;;;;;;3.0;2.9;;;;;;;2.0;100.0;103180;;;;